Time;durP1;ratioP1;P1;durP2;ratioP2;P2;SDS_P1;SDS_P2;PMS_P1;PMS_P2;Temp;Humidity;BMP_temperature;BMP_pressure;BME280_temperature;BME280_humidity;BME280_pressure;Samples;Min_cycle;Max_cycle;Signal;HPM_P1;HPM_P2
2023/12/04 00:00:06;;;;;;;24.38;11.30;;;-3.00;67.50;;;;;;5094615;28;20067;-80
2023/12/04 00:02:41;;;;;;;21.33;10.40;;;-3.10;67.90;;;;;;5035928;28;20055;-81
2023/12/04 00:05:09;;;;;;;18.90;10.07;;;-3.00;67.90;;;;;;5057094;28;20136;-81
2023/12/04 00:07:37;;;;;;;21.77;11.13;;;-3.00;67.90;;;;;;5072967;28;20048;-82
2023/12/04 00:10:05;;;;;;;17.90;10.73;;;-3.00;67.50;;;;;;5081640;28;20056;-81
2023/12/04 00:12:33;;;;;;;18.25;10.60;;;-2.90;67.70;;;;;;5059413;28;20044;-80
2023/12/04 00:15:01;;;;;;;20.85;10.40;;;-2.90;67.80;;;;;;5055402;28;20052;-81
2023/12/04 00:17:32;;;;;;;18.25;10.23;;;-2.90;68.10;;;;;;5069319;28;20123;-81
2023/12/04 00:20:01;;;;;;;23.23;10.60;;;-2.90;67.60;;;;;;5036003;28;20057;-78
2023/12/04 00:22:29;;;;;;;20.13;10.02;;;-2.90;67.30;;;;;;5037137;28;20056;-77
2023/12/04 00:24:57;;;;;;;21.05;10.60;;;-2.90;67.20;;;;;;5053883;28;20048;-77
2023/12/04 00:27:26;;;;;;;19.00;10.55;;;-2.90;67.40;;;;;;5054101;28;20041;-78
2023/12/04 00:29:54;;;;;;;17.85;10.15;;;-2.90;67.60;;;;;;5071388;28;20055;-77
2023/12/04 00:32:22;;;;;;;17.58;9.60;;;-2.80;67.70;;;;;;5053568;28;20048;-78
2023/12/04 00:34:50;;;;;;;18.67;10.52;;;-2.90;67.40;;;;;;5066050;28;20049;-78
2023/12/04 00:37:19;;;;;;;19.33;9.35;;;-2.80;68.00;;;;;;5052562;28;20465;-78
2023/12/04 00:39:47;;;;;;;17.38;9.00;;;-2.80;67.60;;;;;;5070441;28;20063;-79
2023/12/04 00:42:15;;;;;;;17.80;8.90;;;-2.70;67.40;;;;;;5057001;28;20075;-79
2023/12/04 00:44:43;;;;;;;16.13;8.45;;;-2.70;67.60;;;;;;5059283;28;20044;-81
2023/12/04 00:47:12;;;;;;;15.88;8.77;;;-2.70;67.10;;;;;;5038873;28;20049;-81
2023/12/04 00:49:40;;;;;;;16.38;9.05;;;-2.70;67.10;;;;;;5055779;28;20044;-82
2023/12/04 00:52:08;;;;;;;16.80;9.40;;;-2.70;67.20;;;;;;5046168;28;20446;-80
2023/12/04 00:54:41;;;;;;;18.65;10.20;;;-2.70;67.70;;;;;;5056090;28;20048;-81
2023/12/04 00:57:11;;;;;;;20.80;11.07;;;-2.70;67.50;;;;;;5054423;28;20079;-81
2023/12/04 00:59:41;;;;;;;25.85;9.02;;;-2.60;67.20;;;;;;5055288;28;20048;-81
2023/12/04 01:02:09;;;;;;;16.88;9.65;;;-2.60;66.80;;;;;;5052926;28;20143;-81
2023/12/04 01:04:36;;;;;;;17.70;10.40;;;-2.60;66.60;;;;;;5072089;28;20428;-81
2023/12/04 01:07:04;;;;;;;17.33;9.60;;;-2.60;66.70;;;;;;5081014;28;20593;-77
2023/12/04 01:09:32;;;;;;;20.00;10.20;;;-2.70;67.60;;;;;;5028428;28;20041;-77
2023/12/04 01:12:01;;;;;;;18.60;9.80;;;-2.70;67.40;;;;;;5051874;28;20411;-78
2023/12/04 01:14:29;;;;;;;17.60;9.82;;;-2.70;67.40;;;;;;5037537;28;20512;-78
2023/12/04 01:16:57;;;;;;;15.07;8.95;;;-2.70;67.50;;;;;;5053263;28;20048;-79
2023/12/04 01:19:24;;;;;;;18.80;8.88;;;-2.70;67.40;;;;;;5070902;28;20045;-78
2023/12/04 01:21:52;;;;;;;15.90;8.73;;;-2.70;67.20;;;;;;5071168;28;20566;-77
2023/12/04 01:24:20;;;;;;;19.02;9.40;;;-2.70;67.30;;;;;;5053797;28;20041;-78
2023/12/04 01:26:48;;;;;;;18.05;9.50;;;-2.70;67.40;;;;;;5070767;28;20052;-79
2023/12/04 01:29:17;;;;;;;14.00;7.90;;;-2.70;67.50;;;;;;5051958;28;20045;-76
2023/12/04 01:31:44;;;;;;;16.17;8.80;;;-2.70;67.60;;;;;;5070835;28;20139;-77
2023/12/04 01:34:12;;;;;;;17.13;8.32;;;-2.70;67.50;;;;;;5064015;28;20098;-79
2023/12/04 01:36:42;;;;;;;14.38;8.52;;;-2.80;67.50;;;;;;5033010;28;20057;-79
2023/12/04 01:39:09;;;;;;;13.43;7.88;;;-2.80;68.00;;;;;;5015456;28;20110;-79
2023/12/04 01:41:37;;;;;;;17.55;8.48;;;-2.70;67.90;;;;;;5049502;28;20041;-79
2023/12/04 01:44:05;;;;;;;15.10;8.63;;;-2.70;67.60;;;;;;5049857;28;20061;-78
2023/12/04 01:46:34;;;;;;;14.13;8.13;;;-2.80;67.10;;;;;;5049926;28;20485;-78
2023/12/04 01:49:02;;;;;;;13.27;7.70;;;-2.80;67.20;;;;;;5031828;28;20123;-77
2023/12/04 01:51:31;;;;;;;12.95;7.70;;;-2.90;67.20;;;;;;5051444;28;20045;-78
2023/12/04 01:54:00;;;;;;;13.93;7.88;;;-2.90;67.60;;;;;;5016068;28;20041;-77
2023/12/04 01:56:28;;;;;;;14.45;7.45;;;-2.90;67.70;;;;;;5016123;28;20048;-77
2023/12/04 01:58:56;;;;;;;15.23;8.13;;;-3.00;67.70;;;;;;5050921;28;20487;-78
2023/12/04 02:01:25;;;;;;;14.63;8.13;;;-2.90;67.90;;;;;;5016110;28;20041;-77
2023/12/04 02:03:56;;;;;;;13.32;7.88;;;-3.00;67.90;;;;;;5051781;28;20057;-77
2023/12/04 02:06:25;;;;;;;13.77;8.40;;;-3.00;68.20;;;;;;5032914;28;20041;-77
2023/12/04 02:08:52;;;;;;;18.08;8.95;;;-3.10;68.10;;;;;;5050103;28;20056;-78
2023/12/04 02:11:20;;;;;;;16.00;8.82;;;-3.10;67.90;;;;;;5053516;28;20397;-77
2023/12/04 02:13:48;;;;;;;16.30;8.70;;;-3.10;68.30;;;;;;5050534;28;20117;-79
2023/12/04 02:16:18;;;;;;;14.88;8.05;;;-3.10;67.90;;;;;;5044170;28;20163;-78
2023/12/04 02:18:47;;;;;;;14.02;8.43;;;-3.10;68.20;;;;;;5045390;28;20049;-79
2023/12/04 02:21:16;;;;;;;18.17;9.55;;;-3.10;68.20;;;;;;5039722;28;20048;-79
2023/12/04 02:23:44;;;;;;;17.23;9.05;;;-3.10;68.50;;;;;;5046052;28;20117;-78
2023/12/04 02:26:18;;;;;;;18.77;9.52;;;-3.10;68.90;;;;;;5043064;28;20053;-78
2023/12/04 02:29:00;;;;;;;17.77;10.15;;;-3.10;68.70;;;;;;5057590;28;20128;-77
2023/12/04 02:31:31;;;;;;;18.35;10.00;;;-3.10;68.80;;;;;;5032091;28;20040;-79
2023/12/04 02:34:00;;;;;;;16.95;8.55;;;-3.10;68.40;;;;;;5048795;28;20045;-79
2023/12/04 02:36:28;;;;;;;21.08;10.52;;;-3.10;68.50;;;;;;5042272;28;20497;-77
2023/12/04 02:38:57;;;;;;;18.52;10.38;;;-3.10;68.50;;;;;;5070906;28;20409;-81
2023/12/04 02:41:25;;;;;;;18.15;9.68;;;-3.10;68.50;;;;;;5069101;28;20064;-79
2023/12/04 02:43:53;;;;;;;14.88;8.68;;;-3.10;68.50;;;;;;5083588;28;20075;-82
2023/12/04 02:46:21;;;;;;;20.63;9.70;;;-3.00;68.60;;;;;;5048716;28;20037;-81
2023/12/04 02:48:48;;;;;;;19.55;9.48;;;-3.10;68.40;;;;;;5071109;28;20052;-81
2023/12/04 02:51:16;;;;;;;15.48;8.48;;;-3.00;68.30;;;;;;5045502;28;20124;-81
2023/12/04 02:53:44;;;;;;;17.58;8.57;;;-3.00;68.40;;;;;;5048242;28;20063;-81
2023/12/04 02:56:12;;;;;;;18.48;9.25;;;-3.00;68.50;;;;;;5067004;28;20417;-80
2023/12/04 02:58:41;;;;;;;18.40;8.40;;;-3.00;68.10;;;;;;5069840;28;20059;-80
2023/12/04 03:01:09;;;;;;;13.10;8.15;;;-3.00;67.80;;;;;;5070330;28;20051;-80
2023/12/04 03:03:37;;;;;;;16.10;8.82;;;-3.00;67.90;;;;;;5064790;28;20052;-82
2023/12/04 03:06:05;;;;;;;17.23;8.77;;;-3.00;67.80;;;;;;5065270;28;20044;-80
2023/12/04 03:08:33;;;;;;;18.52;9.40;;;-3.00;68.00;;;;;;5077877;28;20182;-81
2023/12/04 03:11:02;;;;;;;17.05;9.18;;;-3.00;67.90;;;;;;5051843;28;20068;-81
2023/12/04 03:13:30;;;;;;;20.58;10.05;;;-2.90;68.10;;;;;;5035017;28;20048;-80
2023/12/04 03:15:59;;;;;;;18.30;9.50;;;-2.90;67.90;;;;;;5081648;28;20040;-80
2023/12/04 03:18:28;;;;;;;15.23;9.18;;;-2.90;68.70;;;;;;5043037;28;20045;-81
2023/12/04 03:20:56;;;;;;;18.35;9.68;;;-2.80;67.90;;;;;;5035249;28;20052;-81
2023/12/04 03:23:24;;;;;;;16.70;9.27;;;-2.80;67.70;;;;;;5051635;28;20143;-81
2023/12/04 03:25:52;;;;;;;17.10;8.82;;;-2.90;67.60;;;;;;5050178;28;20048;-80
2023/12/04 03:28:19;;;;;;;17.50;8.85;;;-2.90;67.60;;;;;;5046634;28;20075;-79
2023/12/04 03:30:47;;;;;;;17.50;8.88;;;-2.80;67.70;;;;;;5075451;28;20048;-80
2023/12/04 03:33:16;;;;;;;17.00;9.27;;;-2.80;68.30;;;;;;5058115;28;20102;-79
2023/12/04 03:35:44;;;;;;;16.30;8.23;;;-2.80;67.60;;;;;;5054929;28;20084;-79
2023/12/04 03:38:11;;;;;;;16.88;9.80;;;-2.90;67.70;;;;;;5070766;28;20044;-78
2023/12/04 03:40:41;;;;;;;18.00;9.05;;;-2.90;67.60;;;;;;5055901;28;20049;-80
2023/12/04 03:43:09;;;;;;;21.45;9.35;;;-2.90;67.70;;;;;;5046173;28;20059;-78
2023/12/04 03:45:37;;;;;;;16.50;9.65;;;-2.90;67.80;;;;;;5049157;28;20518;-79
2023/12/04 03:48:05;;;;;;;21.98;11.68;;;-3.00;68.00;;;;;;5074236;28;20055;-80
2023/12/04 03:50:35;;;;;;;15.07;9.23;;;-3.00;68.40;;;;;;5073618;28;20041;-80
2023/12/04 03:53:03;;;;;;;17.25;8.90;;;-3.00;68.30;;;;;;5052128;28;20059;-77
2023/12/04 03:55:30;;;;;;;14.68;8.27;;;-3.00;68.00;;;;;;5074469;28;20060;-79
2023/12/04 03:57:59;;;;;;;14.65;8.25;;;-3.00;68.00;;;;;;5085774;28;20522;-80
2023/12/04 04:00:29;;;;;;;14.80;8.35;;;-3.00;67.90;;;;;;5061744;28;20053;-80
2023/12/04 04:02:59;;;;;;;16.00;8.40;;;-2.90;68.20;;;;;;5067629;28;20048;-79
2023/12/04 04:05:27;;;;;;;16.23;8.90;;;-3.00;67.50;;;;;;5074258;28;20058;-81
2023/12/04 04:07:57;;;;;;;13.10;7.88;;;-2.90;67.70;;;;;;5054052;28;20098;-80
2023/12/04 04:10:24;;;;;;;16.35;7.68;;;-3.00;67.50;;;;;;5062923;28;20044;-80
2023/12/04 04:12:52;;;;;;;18.23;8.60;;;-3.10;67.80;;;;;;5062895;28;20048;-80
2023/12/04 04:15:20;;;;;;;14.65;7.60;;;-3.00;68.80;;;;;;5055942;28;20045;-77
2023/12/04 04:17:51;;;;;;;14.98;7.97;;;-3.00;67.90;;;;;;5050508;28;20055;-79
2023/12/04 04:20:19;;;;;;;14.73;8.30;;;-3.00;67.60;;;;;;5070661;28;20055;-79
2023/12/04 04:22:49;;;;;;;12.82;7.32;;;-3.10;67.50;;;;;;5069846;28;20589;-78
2023/12/04 04:25:26;;;;;;;13.45;7.45;;;-3.10;68.20;;;;;;5068133;28;20102;-80
2023/12/04 04:27:54;;;;;;;17.48;8.35;;;-3.10;68.10;;;;;;5072092;28;20048;-79
2023/12/04 04:30:21;;;;;;;17.83;8.00;;;-3.10;68.30;;;;;;5035790;28;20068;-79
2023/12/04 04:32:49;;;;;;;13.50;8.40;;;-3.10;68.20;;;;;;5037968;28;20055;-78
2023/12/04 04:35:17;;;;;;;14.45;8.52;;;-3.10;68.10;;;;;;5064556;28;20048;-80
2023/12/04 04:37:44;;;;;;;13.68;7.85;;;-3.00;68.10;;;;;;5087956;28;20483;-79
2023/12/04 04:40:13;;;;;;;14.88;8.65;;;-3.10;68.20;;;;;;5074153;28;20055;-80
2023/12/04 04:42:42;;;;;;;18.85;7.88;;;-3.10;68.10;;;;;;5055279;28;20037;-79
2023/12/04 04:45:11;;;;;;;15.20;8.02;;;-3.10;68.10;;;;;;5055297;28;20048;-80
2023/12/04 04:47:38;;;;;;;17.15;8.85;;;-3.10;68.00;;;;;;5055280;28;20473;-80
2023/12/04 04:50:08;;;;;;;18.75;8.55;;;-3.10;68.10;;;;;;5065191;28;20052;-80
2023/12/04 04:52:36;;;;;;;15.27;7.65;;;-3.00;67.90;;;;;;5038094;28;20106;-81
2023/12/04 04:55:06;;;;;;;13.80;7.43;;;-3.00;67.90;;;;;;5053520;28;20521;-80
2023/12/04 04:57:39;;;;;;;15.27;8.93;;;-3.00;68.00;;;;;;5068560;28;20135;-79
2023/12/04 05:00:11;;;;;;;15.20;8.13;;;-3.00;68.00;;;;;;5053118;28;20062;-78
2023/12/04 05:02:39;;;;;;;15.40;8.10;;;-3.00;68.20;;;;;;5070790;28;20102;-79
2023/12/04 05:05:08;;;;;;;16.05;8.13;;;-3.00;68.10;;;;;;5072456;28;20053;-79
2023/12/04 05:07:36;;;;;;;18.55;8.52;;;-3.00;68.00;;;;;;5064291;28;20094;-81
2023/12/04 05:10:04;;;;;;;16.95;8.70;;;-3.00;68.20;;;;;;5072600;28;20135;-80
2023/12/04 05:12:32;;;;;;;14.52;8.07;;;-3.10;68.50;;;;;;5071352;28;20052;-81
2023/12/04 05:15:03;;;;;;;14.38;7.82;;;-3.10;68.50;;;;;;5075927;28;20044;-81
2023/12/04 05:17:33;;;;;;;14.95;8.60;;;-3.00;68.40;;;;;;5070064;28;20071;-82
2023/12/04 05:20:01;;;;;;;16.02;8.65;;;-3.10;68.40;;;;;;5070257;28;20107;-79
2023/12/04 05:22:30;;;;;;;13.73;8.23;;;-3.10;68.70;;;;;;5053730;28;20083;-80
2023/12/04 05:24:58;;;;;;;17.15;8.52;;;-3.00;68.70;;;;;;5056538;28;20122;-79
2023/12/04 05:27:25;;;;;;;13.95;7.82;;;-3.10;68.40;;;;;;5051652;28;20524;-79
2023/12/04 05:29:53;;;;;;;18.40;8.65;;;-3.10;68.70;;;;;;5049679;28;20102;-81
2023/12/04 05:32:21;;;;;;;15.45;8.57;;;-3.10;68.80;;;;;;5033515;28;20528;-79
2023/12/04 05:34:50;;;;;;;15.82;8.60;;;-3.10;68.90;;;;;;5057534;28;20060;-81
2023/12/04 05:37:17;;;;;;;15.85;8.57;;;-3.10;68.90;;;;;;5038135;28;20065;-80
2023/12/04 05:39:45;;;;;;;17.63;8.30;;;-3.20;68.90;;;;;;5033314;28;20528;-81
2023/12/04 05:42:13;;;;;;;22.30;8.60;;;-3.20;68.90;;;;;;5033565;28;20045;-79
2023/12/04 05:44:40;;;;;;;17.30;8.82;;;-3.20;69.10;;;;;;5040211;28;20057;-79
2023/12/04 05:47:11;;;;;;;15.82;8.02;;;-3.20;69.00;;;;;;5033078;28;20049;-79
2023/12/04 05:49:38;;;;;;;20.55;9.35;;;-3.20;69.10;;;;;;5030196;28;20049;-78
2023/12/04 05:52:08;;;;;;;17.70;8.60;;;-3.20;69.00;;;;;;5046507;28;20075;-80
2023/12/04 05:54:36;;;;;;;17.02;8.68;;;-3.20;69.30;;;;;;5049728;28;20136;-77
2023/12/04 05:57:04;;;;;;;15.45;8.82;;;-3.20;69.40;;;;;;5050893;28;20048;-78
2023/12/04 05:59:32;;;;;;;19.08;9.80;;;-3.20;69.20;;;;;;5049855;28;20068;-79
2023/12/04 06:02:00;;;;;;;19.08;9.65;;;-3.10;70.00;;;;;;5032489;28;20055;-81
2023/12/04 06:04:28;;;;;;;21.52;9.60;;;-3.20;69.10;;;;;;5032665;28;20045;-80
2023/12/04 06:06:58;;;;;;;17.00;9.50;;;-3.10;69.20;;;;;;5051501;28;20057;-79
2023/12/04 06:09:43;;;;;;;;;;;;;;;;;;;;;
2023/12/04 06:12:15;;;;;;;18.77;9.25;;;-3.10;69.00;;;;;;5048485;28;20045;-80
2023/12/04 06:15:18;;;;;;;22.40;9.90;;;-3.10;69.00;;;;;;5043805;28;20146;-79
2023/12/04 06:17:46;;;;;;;19.27;9.80;;;-3.20;69.00;;;;;;5030345;28;20045;-79
2023/12/04 06:20:14;;;;;;;18.08;9.30;;;-3.20;69.20;;;;;;5049062;28;20119;-80
2023/12/04 06:22:45;;;;;;;24.02;10.60;;;-3.10;69.40;;;;;;5066456;28;20405;-79
2023/12/04 06:25:19;;;;;;;18.98;10.10;;;-3.20;69.60;;;;;;5032240;28;20142;-79
2023/12/04 06:27:48;;;;;;;18.95;9.63;;;-3.10;69.50;;;;;;5016360;28;20044;-80
2023/12/04 06:30:17;;;;;;;24.38;9.68;;;-3.10;69.40;;;;;;5027840;28;20052;-81
2023/12/04 06:32:46;;;;;;;19.88;9.40;;;-3.10;69.30;;;;;;5032440;28;20041;-81
2023/12/04 06:35:24;;;;;;;19.08;9.82;;;-3.20;69.20;;;;;;5039056;28;20071;-79
2023/12/04 06:37:55;;;;;;;21.00;10.25;;;-3.10;69.40;;;;;;5053100;28;20044;-80
2023/12/04 06:40:25;;;;;;;19.17;9.88;;;-3.10;69.70;;;;;;5072022;28;20066;-80
2023/12/04 06:42:55;;;;;;;24.48;10.27;;;-3.10;69.40;;;;;;5070430;28;20048;-78
2023/12/04 06:45:24;;;;;;;21.15;10.02;;;-3.10;69.30;;;;;;5071284;28;20094;-80
2023/12/04 06:47:57;;;;;;;26.27;10.55;;;-3.10;69.50;;;;;;5052550;28;20056;-79
2023/12/04 06:50:28;;;;;;;20.70;10.52;;;-3.10;69.60;;;;;;5052632;28;20048;-78
2023/12/04 06:52:58;;;;;;;26.70;9.50;;;-3.10;69.40;;;;;;5052984;28;20055;-80
2023/12/04 06:55:27;;;;;;;19.05;9.45;;;-3.10;69.60;;;;;;5050039;28;20054;-79
2023/12/04 06:57:54;;;;;;;22.80;11.18;;;-3.10;69.40;;;;;;5070473;28;20052;-80
2023/12/04 07:00:22;;;;;;;20.85;10.60;;;-3.10;69.50;;;;;;5069884;28;20056;-79
2023/12/04 07:02:53;;;;;;;25.35;10.85;;;-3.10;69.30;;;;;;5052271;28;20044;-80
2023/12/04 07:05:21;;;;;;;22.00;12.27;;;-3.10;69.20;;;;;;5069534;28;20044;-78
2023/12/04 07:07:52;;;;;;;19.02;10.55;;;-3.10;69.40;;;;;;5054317;28;20424;-79
2023/12/04 07:10:20;;;;;;;20.13;10.35;;;-3.10;69.60;;;;;;5074047;28;20048;-81
2023/12/04 07:12:49;;;;;;;23.17;11.15;;;-3.10;69.50;;;;;;5074177;28;20052;-79
2023/12/04 07:15:17;;;;;;;23.00;10.35;;;-3.10;69.10;;;;;;5074390;28;20483;-79
2023/12/04 07:17:44;;;;;;;20.95;10.85;;;-3.00;69.30;;;;;;5056472;28;20076;-81
2023/12/04 07:20:14;;;;;;;18.17;9.60;;;-3.10;68.80;;;;;;5074354;28;20044;-79
2023/12/04 07:22:44;;;;;;;23.65;10.98;;;-3.10;68.40;;;;;;5083617;28;20080;-81
2023/12/04 07:25:11;;;;;;;35.92;11.82;;;-3.10;68.90;;;;;;5044253;28;20044;-81
2023/12/04 07:27:39;;;;;;;21.25;10.90;;;-3.00;68.90;;;;;;5076323;28;20175;-78
2023/12/04 07:30:10;;;;;;;23.88;10.77;;;-3.00;68.80;;;;;;5056220;28;20052;-79
2023/12/04 07:32:41;;;;;;;35.33;15.50;;;-3.00;68.50;;;;;;5074930;28;20056;-81
2023/12/04 07:35:11;;;;;;;38.33;15.20;;;-2.90;68.50;;;;;;5075867;28;20140;-79
2023/12/04 07:37:42;;;;;;;29.42;14.02;;;-2.90;68.10;;;;;;5076137;28;20052;-80
2023/12/04 07:40:14;;;;;;;27.45;12.68;;;-2.90;68.40;;;;;;5071251;28;20045;-80
2023/12/04 07:42:51;;;;;;;26.17;11.40;;;-2.90;68.00;;;;;;5056610;28;20071;-81
2023/12/04 07:46:03;;;;;;;;;;;;;;;;;;;;;
2023/12/04 07:48:46;;;;;;;23.08;10.82;;;-2.90;68.20;;;;;;5046311;28;20088;-78
2023/12/04 07:51:16;;;;;;;26.35;11.27;;;-2.80;68.00;;;;;;5045231;28;20489;-80
2023/12/04 07:54:14;;;;;;;;;;;;;;;;;;;;;
2023/12/04 07:56:43;;;;;;;27.10;10.27;;;-2.80;67.60;;;;;;5002458;28;20072;-80
2023/12/04 07:59:23;;;;;;;;;;;;;;;;;;;;;
2023/12/04 08:01:58;;;;;;;20.20;10.30;;;-2.80;67.40;;;;;;5023698;28;20524;-81
2023/12/04 08:04:31;;;;;;;23.35;10.95;;;-2.80;67.70;;;;;;5060810;28;20493;-79
2023/12/04 08:07:02;;;;;;;21.73;11.50;;;-2.70;67.50;;;;;;5056259;28;20513;-79
2023/12/04 08:09:38;;;;;;;24.60;10.88;;;-2.60;67.20;;;;;;5037679;28;20932;-80
2023/12/04 08:12:08;;;;;;;23.48;10.90;;;-2.60;66.90;;;;;;5060492;28;20049;-80
2023/12/04 08:14:38;;;;;;;26.95;12.38;;;-2.60;66.90;;;;;;5062152;28;20083;-80
2023/12/04 08:17:07;;;;;;;22.27;11.18;;;-2.60;66.50;;;;;;5038479;28;20586;-79
2023/12/04 08:19:41;;;;;;;29.60;11.30;;;-2.60;66.60;;;;;;5061225;28;20426;-79
2023/12/04 08:22:09;;;;;;;25.67;11.48;;;-2.50;66.40;;;;;;5061396;28;20983;-78
2023/12/04 08:24:37;;;;;;;20.17;10.57;;;-2.50;66.00;;;;;;5060148;28;20056;-79
2023/12/04 08:27:07;;;;;;;19.20;10.68;;;-2.60;65.60;;;;;;5039770;28;20072;-79
2023/12/04 08:29:35;;;;;;;19.60;9.55;;;-2.70;66.00;;;;;;5030327;28;20075;-83
2023/12/04 08:32:04;;;;;;;21.20;10.90;;;-2.60;66.30;;;;;;5059800;28;20524;-78
2023/12/04 08:34:42;;;;;;;23.00;9.90;;;-2.60;65.90;;;;;;5039427;28;20504;-81
2023/12/04 08:37:10;;;;;;;21.67;10.80;;;-2.50;65.70;;;;;;5061626;28;20056;-80
2023/12/04 08:39:38;;;;;;;19.33;9.63;;;-2.40;65.50;;;;;;5062108;28;20051;-79
2023/12/04 08:42:08;;;;;;;17.25;9.02;;;-2.40;65.50;;;;;;5060770;28;20584;-80
2023/12/04 08:44:36;;;;;;;24.52;9.38;;;-2.30;65.50;;;;;;5059386;28;20055;-79
2023/12/04 08:47:04;;;;;;;21.25;10.43;;;-2.20;64.90;;;;;;5021209;28;20571;-80
2023/12/04 08:49:34;;;;;;;19.52;9.48;;;-2.20;64.70;;;;;;5037629;28;20100;-79
2023/12/04 08:52:05;;;;;;;16.73;9.15;;;-2.30;64.70;;;;;;5066089;28;20090;-82
2023/12/04 08:54:33;;;;;;;19.67;10.25;;;-2.30;64.40;;;;;;5042879;28;20753;-80
2023/12/04 08:57:01;;;;;;;20.73;9.25;;;-2.30;64.40;;;;;;5039505;28;20055;-81
2023/12/04 08:59:31;;;;;;;24.63;11.48;;;-2.20;64.50;;;;;;5061153;28;20045;-82
2023/12/04 09:01:59;;;;;;;18.83;9.55;;;-2.20;64.20;;;;;;5038945;28;20056;-82
2023/12/04 09:04:26;;;;;;;26.50;9.65;;;-2.10;63.90;;;;;;5038677;28;20165;-81
2023/12/04 09:06:55;;;;;;;20.10;9.07;;;-2.10;63.60;;;;;;5060575;28;20039;-81
2023/12/04 09:09:23;;;;;;;20.65;9.48;;;-2.00;63.60;;;;;;5061227;28;20222;-81
2023/12/04 09:11:51;;;;;;;19.75;9.48;;;-1.90;63.30;;;;;;5061644;28;20045;-80
2023/12/04 09:14:19;;;;;;;19.85;9.98;;;-1.80;63.10;;;;;;5017567;28;20055;-82
2023/12/04 09:16:47;;;;;;;18.75;9.70;;;-1.80;62.50;;;;;;5059499;28;20052;-80
2023/12/04 09:19:14;;;;;;;19.17;9.75;;;-1.90;62.60;;;;;;5060686;28;20542;-80
2023/12/04 09:21:45;;;;;;;18.40;9.25;;;-1.90;62.80;;;;;;5039563;28;20048;-80
2023/12/04 09:24:14;;;;;;;24.75;9.85;;;-1.80;62.50;;;;;;5060538;28;20565;-81
2023/12/04 09:26:43;;;;;;;23.33;10.48;;;-1.80;62.40;;;;;;5058131;28;20061;-80
2023/12/04 09:29:13;;;;;;;25.55;10.70;;;-1.80;62.20;;;;;;5035324;28;20051;-81
2023/12/04 09:31:41;;;;;;;20.63;10.18;;;-1.80;62.20;;;;;;5059930;28;20072;-80
2023/12/04 09:34:10;;;;;;;23.15;10.25;;;-1.60;62.10;;;;;;5058950;28;20063;-81
2023/12/04 09:36:40;;;;;;;19.48;10.68;;;-1.50;61.90;;;;;;5037524;28;20059;-81
2023/12/04 09:39:09;;;;;;;22.05;10.55;;;-1.50;61.20;;;;;;5058615;28;20673;-80
2023/12/04 09:41:41;;;;;;;19.25;10.05;;;-1.60;61.60;;;;;;5059515;28;20120;-81
2023/12/04 09:44:09;;;;;;;22.90;10.45;;;-1.60;61.90;;;;;;5035544;28;20041;-82
2023/12/04 09:46:38;;;;;;;20.50;10.60;;;-1.60;61.90;;;;;;5023119;28;20078;-81
2023/12/04 09:49:07;;;;;;;21.10;11.90;;;-1.50;61.70;;;;;;5038108;28;20041;-80
2023/12/04 09:51:35;;;;;;;23.67;11.32;;;-1.40;61.00;;;;;;5059465;28;20041;-80
2023/12/04 09:54:05;;;;;;;17.80;9.63;;;-1.40;60.70;;;;;;5058497;28;20079;-80
2023/12/04 09:56:35;;;;;;;24.45;11.02;;;-1.40;61.10;;;;;;5058643;28;20051;-80
2023/12/04 09:59:07;;;;;;;21.63;10.90;;;-1.60;61.00;;;;;;5057970;28;20057;-81
2023/12/04 10:01:38;;;;;;;21.08;10.85;;;-1.60;61.10;;;;;;5057114;28;20064;-80
2023/12/04 10:04:06;;;;;;;23.73;10.98;;;-1.70;61.40;;;;;;5058032;28;20501;-81
2023/12/04 10:06:35;;;;;;;20.02;10.65;;;-1.80;61.90;;;;;;5043453;28;20117;-81
2023/12/04 10:09:03;;;;;;;20.05;10.13;;;-1.80;61.90;;;;;;5063742;28;20048;-81
2023/12/04 10:11:30;;;;;;;21.80;10.57;;;-1.80;61.90;;;;;;5068607;28;20044;-78
2023/12/04 10:14:03;;;;;;;28.60;11.75;;;-1.80;61.90;;;;;;5071905;28;20036;-78
2023/12/04 10:16:38;;;;;;;20.08;10.85;;;-1.80;61.70;;;;;;5071272;28;20052;-80
2023/12/04 10:19:18;;;;;;;19.13;9.10;;;-1.90;62.00;;;;;;5051117;28;20512;-81
2023/12/04 10:21:47;;;;;;;18.23;10.20;;;-1.90;61.70;;;;;;5051327;28;20124;-81
2023/12/04 10:24:31;;;;;;;28.35;10.73;;;-1.80;62.00;;;;;;5071502;28;20049;-81
2023/12/04 10:26:59;;;;;;;28.60;12.93;;;-1.70;61.50;;;;;;5070925;28;20086;-80
2023/12/04 10:29:41;;;;;;;46.85;20.08;;;-1.70;61.00;;;;;;5051229;28;20290;-79
2023/12/04 10:32:10;;;;;;;49.15;23.27;;;-1.70;60.90;;;;;;5046707;28;20052;-80
2023/12/04 10:34:38;;;;;;;52.33;25.63;;;-1.90;61.50;;;;;;5052960;28;20146;-80
2023/12/04 10:37:09;;;;;;;66.10;28.98;;;-1.90;61.50;;;;;;5053357;28;20562;-80
2023/12/04 10:39:48;;;;;;;70.40;29.63;;;-1.90;61.70;;;;;;5073068;28;20079;-81
2023/12/04 10:42:26;;;;;;;59.45;22.77;;;-1.90;62.10;;;;;;5075078;28;20105;-80
2023/12/04 10:44:57;;;;;;;59.45;23.13;;;-1.70;61.60;;;;;;5074936;28;20139;-78
2023/12/04 10:47:25;;;;;;;36.90;16.23;;;-1.60;61.20;;;;;;5056694;28;20101;-80
2023/12/04 10:49:53;;;;;;;40.40;17.02;;;-1.60;60.80;;;;;;5073445;28;20063;-81
2023/12/04 10:52:21;;;;;;;40.67;15.25;;;-1.80;61.10;;;;;;5074558;28;20060;-79
2023/12/04 10:54:51;;;;;;;47.97;18.25;;;-2.00;61.70;;;;;;5056524;28;20045;-81
2023/12/04 10:57:25;;;;;;;26.85;13.23;;;-2.00;62.40;;;;;;5074554;28;20135;-81
2023/12/04 10:59:58;;;;;;;33.83;15.48;;;-1.90;62.50;;;;;;5073463;28;20052;-79
2023/12/04 11:02:28;;;;;;;30.73;12.70;;;-2.00;62.60;;;;;;5074525;28;20040;-79
2023/12/04 11:05:03;;;;;;;23.00;11.23;;;-2.00;62.40;;;;;;5060266;28;20095;-80
2023/12/04 11:07:35;;;;;;;20.55;10.90;;;-1.90;62.50;;;;;;5021218;28;20056;-80
2023/12/04 11:10:08;;;;;;;25.45;12.73;;;-1.90;62.50;;;;;;5053951;28;20059;-79
2023/12/04 11:12:36;;;;;;;25.52;11.20;;;-1.90;62.70;;;;;;5040466;28;20049;-80
2023/12/04 11:15:09;;;;;;;19.73;10.48;;;-2.00;63.90;;;;;;5056479;28;20041;-78
2023/12/04 11:17:39;;;;;;;20.83;11.93;;;-1.90;62.80;;;;;;5055005;28;20053;-79
2023/12/04 11:20:12;;;;;;;30.00;12.32;;;-1.80;62.80;;;;;;5053063;28;20045;-81
2023/12/04 11:22:41;;;;;;;26.48;13.88;;;-1.70;62.40;;;;;;5054075;28;20473;-78
2023/12/04 11:25:11;;;;;;;24.52;12.95;;;-1.60;62.40;;;;;;5054202;28;20488;-77
2023/12/04 11:27:39;;;;;;;24.20;12.13;;;-1.60;62.00;;;;;;5040484;28;20045;-79
2023/12/04 11:30:12;;;;;;;21.15;10.32;;;-1.60;62.20;;;;;;5061196;28;20087;-79
2023/12/04 11:32:46;;;;;;;21.20;9.98;;;-1.60;62.30;;;;;;5063619;28;20054;-80
2023/12/04 11:35:18;;;;;;;24.80;10.90;;;-1.70;62.50;;;;;;5062102;28;20048;-78
2023/12/04 11:37:47;;;;;;;23.90;11.63;;;-1.70;62.60;;;;;;5060497;28;20456;-80
2023/12/04 11:40:17;;;;;;;22.27;11.30;;;-1.90;63.00;;;;;;5061071;28;20292;-83
2023/12/04 11:42:46;;;;;;;20.85;10.68;;;-2.00;63.40;;;;;;5060158;28;20055;-82
2023/12/04 11:45:22;;;;;;;22.67;10.38;;;-2.20;64.20;;;;;;5059355;28;20040;-81
2023/12/04 11:47:58;;;;;;;21.88;11.50;;;-2.40;65.00;;;;;;5060241;28;20047;-82
2023/12/04 11:58:47;;;;;;;21.73;10.68;;;-2.60;66.50;;;;;;5026542;28;20462;-80
2023/12/04 12:02:04;;;;;;;26.77;10.45;;;-2.60;66.90;;;;;;5015570;28;21070;-82
2023/12/04 12:09:27;;;;;;;25.10;10.80;;;-2.60;67.20;;;;;;4887242;29;20055;-80
2023/12/04 12:13:41;;;;;;;;;;;;;;;;;;;;;
2023/12/04 12:17:20;;;;;;;25.25;11.18;;;-2.40;67.40;;;;;;4898898;28;20534;-79
2023/12/04 12:23:56;;;;;;;21.80;10.40;;;-2.20;66.70;;;;;;5042811;28;20064;-79
2023/12/04 12:27:01;;;;;;;21.52;10.30;;;-2.30;66.10;;;;;;5035010;28;20523;-79
2023/12/04 12:34:35;;;;;;;18.80;9.82;;;-2.50;67.00;;;;;;4990374;28;20145;-78
2023/12/04 12:41:40;;;;;;;;;;;;;;;;;;;;;
2023/12/04 12:44:24;;;;;;;21.23;10.25;;;-2.60;67.20;;;;;;5033137;28;20045;-79
2023/12/04 12:46:57;;;;;;;23.83;10.40;;;-2.50;67.00;;;;;;5024090;28;20060;-80
2023/12/04 12:49:47;;;;;;;23.65;10.95;;;-2.60;67.20;;;;;;5012545;28;20146;-79
2023/12/04 12:52:25;;;;;;;20.23;11.32;;;-2.60;67.10;;;;;;5012684;28;20518;-81
2023/12/04 12:55:33;;;;;;;25.50;11.25;;;-2.60;67.10;;;;;;5008182;28;20135;-80
2023/12/04 12:59:29;;;;;;;;;;;;;;;;;;;;;
2023/12/04 13:11:04;;;;;;;22.70;10.27;;;-2.90;67.90;;;;;;4858980;29;20640;-82
2023/12/04 13:30:21;;;;;;;29.73;12.77;;;-3.30;69.40;;;;;;4759131;29;20533;-81
2023/12/04 13:33:07;;;;;;;31.65;12.93;;;-3.40;69.80;;;;;;4922593;28;20051;-81
2023/12/04 13:36:24;;;;;;;27.08;13.40;;;-3.40;69.80;;;;;;4974450;28;20050;-80
2023/12/04 13:38:57;;;;;;;30.52;13.48;;;-3.40;69.90;;;;;;4966061;28;20058;-81
2023/12/04 13:44:18;;;;;;;25.52;13.20;;;-3.30;70.20;;;;;;4989816;28;20052;-81
2023/12/04 13:46:50;;;;;;;25.42;12.82;;;-3.40;69.80;;;;;;5019311;28;20072;-79
2023/12/04 13:49:46;;;;;;;29.23;13.35;;;-3.40;70.10;;;;;;5048636;28;20064;-79
2023/12/04 13:52:23;;;;;;;28.73;13.73;;;-3.40;70.30;;;;;;5052464;28;20049;-80
2023/12/04 13:54:57;;;;;;;30.27;13.32;;;-3.40;70.20;;;;;;5044064;28;20466;-79
2023/12/04 13:57:44;;;;;;;28.55;12.60;;;-3.40;70.40;;;;;;5044111;28;20050;-79